< Typhoon 196203 1962 Season Typhoon 196205 >
Typhoon 196204 (IRIS)
General InformationTrack Information on Google Maps || NewsDisaster Info.ResourceGoogle EarthGE AnimationAtom FeedGeoJSON
Detalied Best Track (Time Zone = UTC)
Year Month Day Hour Lat. Long. Pressure (hPa) Wind (kt) Class Image Chart
1962 5 25 12 8.8 131.4 1008 0 2 -- Chart
1962 5 25 18 9.2 130.5 1007 0 2 -- Chart
1962 5 26 00 9.7 129.6 1008 0 2 -- Chart
1962 5 26 06 10.2 128.7 1008 0 2 -- Chart
1962 5 26 12 10.8 127.9 1008 0 2 -- Chart
1962 5 26 18 11.4 127.0 1008 0 2 -- Chart
1962 5 27 00 12.1 126.4 1008 0 2 -- Chart
1962 5 27 06 12.9 125.7 990 0 9 -- Chart
1962 5 27 12 13.9 125.3 990 0 9 -- Chart
1962 5 27 18 15.0 125.0 990 0 9 -- Chart
1962 5 28 00 15.4 124.8 995 0 9 -- Chart
1962 5 28 06 15.8 124.7 998 0 9 -- Chart
1962 5 28 12 16.2 124.6 1000 0 9 -- Chart
1962 5 28 18 16.7 124.5 1000 0 9 -- Chart
1962 5 29 00 17.4 124.5 1002 0 2 -- Chart
1962 5 29 06 17.9 124.4 1002 0 2 -- Chart
1962 5 29 12 18.6 124.4 1002 0 2 -- Chart
1962 5 29 18 19.4 124.4 1002 0 2 -- Chart
1962 5 30 00 19.9 124.5 1004 0 2 -- Chart
1962 5 30 06 20.4 124.5 1004 0 2 -- Chart
1962 5 30 12 20.7 124.6 1004 0 2 -- Chart
1962 5 30 18 21.2 124.7 1004 0 2 -- Chart
1962 5 31 00 21.8 124.6 1006 0 2 -- Chart
Japan Meteorological Agency Best Track Data | Correction Date : 1989-06-01
< Typhoon 196203 1962 Season Typhoon 196205 >

Help